sensor_id;sensor_type;location;lat;lon;timestamp;P1;durP1;ratioP1;P2;durP2;ratioP2
39448;SDS011;25151;45.566;9.382;2023-04-15T00:02:17;3.33;;;0.70;;
39448;SDS011;25151;45.566;9.382;2023-04-15T00:05:18;3.20;;;0.68;;
39448;SDS011;25151;45.566;9.382;2023-04-15T00:08:20;3.25;;;0.70;;
39448;SDS011;25151;45.566;9.382;2023-04-15T00:11:20;1.08;;;0.38;;
39448;SDS011;25151;45.566;9.382;2023-04-15T00:14:21;2.20;;;0.70;;
39448;SDS011;25151;45.566;9.382;2023-04-15T00:17:22;1.05;;;0.63;;
39448;SDS011;25151;45.566;9.382;2023-04-15T00:20:23;1.73;;;0.50;;
39448;SDS011;25151;45.566;9.382;2023-04-15T00:23:24;0.63;;;0.50;;
39448;SDS011;25151;45.566;9.382;2023-04-15T00:26:25;0.95;;;0.40;;
39448;SDS011;25151;45.566;9.382;2023-04-15T00:29:27;3.33;;;0.40;;
39448;SDS011;25151;45.566;9.382;2023-04-15T00:32:28;1.95;;;0.85;;
39448;SDS011;25151;45.566;9.382;2023-04-15T00:35:30;1.67;;;0.50;;
39448;SDS011;25151;45.566;9.382;2023-04-15T00:38:33;0.60;;;0.50;;
39448;SDS011;25151;45.566;9.382;2023-04-15T00:41:35;6.22;;;0.60;;
39448;SDS011;25151;45.566;9.382;2023-04-15T00:44:39;1.15;;;0.40;;
39448;SDS011;25151;45.566;9.382;2023-04-15T00:47:40;1.10;;;0.50;;
39448;SDS011;25151;45.566;9.382;2023-04-15T00:50:43;1.95;;;0.80;;
39448;SDS011;25151;45.566;9.382;2023-04-15T00:53:43;1.77;;;0.50;;
39448;SDS011;25151;45.566;9.382;2023-04-15T00:56:44;1.73;;;0.70;;
39448;SDS011;25151;45.566;9.382;2023-04-15T00:59:45;2.17;;;0.50;;
39448;SDS011;25151;45.566;9.382;2023-04-15T01:02:46;0.70;;;0.60;;
39448;SDS011;25151;45.566;9.382;2023-04-15T01:05:47;1.80;;;0.60;;
39448;SDS011;25151;45.566;9.382;2023-04-15T01:08:49;2.08;;;0.70;;
39448;SDS011;25151;45.566;9.382;2023-04-15T01:11:50;0.90;;;0.47;;
39448;SDS011;25151;45.566;9.382;2023-04-15T01:14:52;1.67;;;0.60;;
39448;SDS011;25151;45.566;9.382;2023-04-15T01:17:53;1.67;;;0.47;;
39448;SDS011;25151;45.566;9.382;2023-04-15T01:20:54;1.13;;;0.68;;
39448;SDS011;25151;45.566;9.382;2023-04-15T01:23:55;1.10;;;0.45;;
39448;SDS011;25151;45.566;9.382;2023-04-15T01:26:57;1.17;;;0.70;;
39448;SDS011;25151;45.566;9.382;2023-04-15T01:29:58;2.75;;;0.50;;
39448;SDS011;25151;45.566;9.382;2023-04-15T01:32:59;1.55;;;0.90;;
39448;SDS011;25151;45.566;9.382;2023-04-15T01:36:00;0.93;;;0.55;;
39448;SDS011;25151;45.566;9.382;2023-04-15T01:39:02;1.45;;;0.60;;
39448;SDS011;25151;45.566;9.382;2023-04-15T01:42:04;2.65;;;0.55;;
39448;SDS011;25151;45.566;9.382;2023-04-15T01:45:06;0.70;;;0.40;;
39448;SDS011;25151;45.566;9.382;2023-04-15T01:48:07;0.93;;;0.45;;
39448;SDS011;25151;45.566;9.382;2023-04-15T01:51:08;1.88;;;0.52;;
39448;SDS011;25151;45.566;9.382;2023-04-15T01:54:09;1.00;;;0.50;;
39448;SDS011;25151;45.566;9.382;2023-04-15T01:57:10;0.85;;;0.52;;
39448;SDS011;25151;45.566;9.382;2023-04-15T02:00:11;1.80;;;0.45;;
39448;SDS011;25151;45.566;9.382;2023-04-15T02:03:12;2.33;;;0.95;;
39448;SDS011;25151;45.566;9.382;2023-04-15T02:06:14;1.08;;;0.57;;
39448;SDS011;25151;45.566;9.382;2023-04-15T02:09:15;1.45;;;0.65;;
39448;SDS011;25151;45.566;9.382;2023-04-15T02:12:16;1.92;;;0.50;;
39448;SDS011;25151;45.566;9.382;2023-04-15T02:15:17;1.63;;;0.70;;
39448;SDS011;25151;45.566;9.382;2023-04-15T02:18:17;1.67;;;0.50;;
39448;SDS011;25151;45.566;9.382;2023-04-15T02:21:18;3.28;;;0.70;;
39448;SDS011;25151;45.566;9.382;2023-04-15T02:24:19;2.25;;;0.50;;
39448;SDS011;25151;45.566;9.382;2023-04-15T02:27:20;1.33;;;0.50;;
39448;SDS011;25151;45.566;9.382;2023-04-15T02:30:21;0.95;;;0.40;;
39448;SDS011;25151;45.566;9.382;2023-04-15T02:33:23;1.25;;;0.52;;
39448;SDS011;25151;45.566;9.382;2023-04-15T02:36:24;1.23;;;0.65;;
39448;SDS011;25151;45.566;9.382;2023-04-15T02:39:26;0.80;;;0.60;;
39448;SDS011;25151;45.566;9.382;2023-04-15T02:42:28;1.55;;;0.50;;
39448;SDS011;25151;45.566;9.382;2023-04-15T02:45:29;1.65;;;0.80;;
39448;SDS011;25151;45.566;9.382;2023-04-15T02:48:30;1.08;;;0.40;;
39448;SDS011;25151;45.566;9.382;2023-04-15T02:51:31;0.82;;;0.43;;
39448;SDS011;25151;45.566;9.382;2023-04-15T02:54:32;1.15;;;0.60;;
39448;SDS011;25151;45.566;9.382;2023-04-15T02:57:33;1.23;;;0.55;;
39448;SDS011;25151;45.566;9.382;2023-04-15T03:00:36;0.85;;;0.70;;
39448;SDS011;25151;45.566;9.382;2023-04-15T03:03:37;2.03;;;0.40;;
39448;SDS011;25151;45.566;9.382;2023-04-15T03:06:37;0.70;;;0.60;;
39448;SDS011;25151;45.566;9.382;2023-04-15T03:09:38;0.73;;;0.40;;
39448;SDS011;25151;45.566;9.382;2023-04-15T03:12:40;3.72;;;0.65;;
39448;SDS011;25151;45.566;9.382;2023-04-15T03:15:40;0.57;;;0.50;;
39448;SDS011;25151;45.566;9.382;2023-04-15T03:18:41;1.55;;;0.60;;
39448;SDS011;25151;45.566;9.382;2023-04-15T03:21:42;1.80;;;0.57;;
39448;SDS011;25151;45.566;9.382;2023-04-15T03:24:42;0.50;;;0.50;;
39448;SDS011;25151;45.566;9.382;2023-04-15T03:27:43;0.65;;;0.50;;
39448;SDS011;25151;45.566;9.382;2023-04-15T03:30:44;0.77;;;0.60;;
39448;SDS011;25151;45.566;9.382;2023-04-15T03:33:45;0.55;;;0.50;;
39448;SDS011;25151;45.566;9.382;2023-04-15T03:36:46;1.10;;;0.60;;
39448;SDS011;25151;45.566;9.382;2023-04-15T03:39:47;0.70;;;0.40;;
39448;SDS011;25151;45.566;9.382;2023-04-15T03:42:48;1.13;;;0.50;;
39448;SDS011;25151;45.566;9.382;2023-04-15T03:45:49;1.38;;;0.60;;
39448;SDS011;25151;45.566;9.382;2023-04-15T03:48:51;0.45;;;0.40;;
39448;SDS011;25151;45.566;9.382;2023-04-15T03:51:52;0.50;;;0.50;;
39448;SDS011;25151;45.566;9.382;2023-04-15T03:54:53;1.67;;;0.88;;
39448;SDS011;25151;45.566;9.382;2023-04-15T03:57:54;0.60;;;0.40;;
39448;SDS011;25151;45.566;9.382;2023-04-15T04:00:56;0.75;;;0.45;;
39448;SDS011;25151;45.566;9.382;2023-04-15T04:03:57;2.03;;;0.45;;
39448;SDS011;25151;45.566;9.382;2023-04-15T04:06:59;0.90;;;0.70;;
39448;SDS011;25151;45.566;9.382;2023-04-15T04:10:01;1.55;;;0.65;;
39448;SDS011;25151;45.566;9.382;2023-04-15T04:13:03;3.38;;;1.00;;
39448;SDS011;25151;45.566;9.382;2023-04-15T04:16:05;1.35;;;0.30;;
39448;SDS011;25151;45.566;9.382;2023-04-15T04:19:08;0.88;;;0.60;;
39448;SDS011;25151;45.566;9.382;2023-04-15T04:22:09;1.30;;;0.50;;
39448;SDS011;25151;45.566;9.382;2023-04-15T04:25:11;0.63;;;0.40;;
39448;SDS011;25151;45.566;9.382;2023-04-15T04:28:12;3.80;;;0.80;;
39448;SDS011;25151;45.566;9.382;2023-04-15T04:31:13;1.60;;;0.70;;
39448;SDS011;25151;45.566;9.382;2023-04-15T04:34:15;1.45;;;0.50;;
39448;SDS011;25151;45.566;9.382;2023-04-15T04:37:16;0.80;;;0.50;;
39448;SDS011;25151;45.566;9.382;2023-04-15T04:40:17;0.55;;;0.45;;
39448;SDS011;25151;45.566;9.382;2023-04-15T04:43:18;1.20;;;0.40;;
39448;SDS011;25151;45.566;9.382;2023-04-15T04:46:21;0.77;;;0.50;;
39448;SDS011;25151;45.566;9.382;2023-04-15T04:49:23;0.65;;;0.52;;
39448;SDS011;25151;45.566;9.382;2023-04-15T04:52:24;1.10;;;0.30;;
39448;SDS011;25151;45.566;9.382;2023-04-15T04:55:25;0.75;;;0.60;;
39448;SDS011;25151;45.566;9.382;2023-04-15T04:58:27;1.25;;;0.50;;
39448;SDS011;25151;45.566;9.382;2023-04-15T05:01:28;1.67;;;0.47;;
39448;SDS011;25151;45.566;9.382;2023-04-15T05:04:30;4.95;;;0.60;;
39448;SDS011;25151;45.566;9.382;2023-04-15T05:07:31;0.70;;;0.50;;
39448;SDS011;25151;45.566;9.382;2023-04-15T05:10:32;1.13;;;0.82;;
39448;SDS011;25151;45.566;9.382;2023-04-15T05:13:33;0.63;;;0.40;;
39448;SDS011;25151;45.566;9.382;2023-04-15T05:16:38;1.20;;;0.45;;
39448;SDS011;25151;45.566;9.382;2023-04-15T05:19:39;0.95;;;0.57;;
39448;SDS011;25151;45.566;9.382;2023-04-15T05:22:40;0.50;;;0.43;;
39448;SDS011;25151;45.566;9.382;2023-04-15T05:25:45;0.80;;;0.70;;
39448;SDS011;25151;45.566;9.382;2023-04-15T05:28:46;0.93;;;0.60;;
39448;SDS011;25151;45.566;9.382;2023-04-15T05:31:47;1.58;;;0.70;;
39448;SDS011;25151;45.566;9.382;2023-04-15T05:34:48;0.68;;;0.50;;
39448;SDS011;25151;45.566;9.382;2023-04-15T05:37:49;1.67;;;0.60;;
39448;SDS011;25151;45.566;9.382;2023-04-15T05:40:50;1.02;;;0.40;;
39448;SDS011;25151;45.566;9.382;2023-04-15T05:43:51;1.05;;;0.63;;
39448;SDS011;25151;45.566;9.382;2023-04-15T05:46:52;0.90;;;0.70;;
39448;SDS011;25151;45.566;9.382;2023-04-15T05:49:53;0.98;;;0.70;;
39448;SDS011;25151;45.566;9.382;2023-04-15T05:52:55;1.20;;;0.60;;
39448;SDS011;25151;45.566;9.382;2023-04-15T05:55:56;1.17;;;0.52;;
39448;SDS011;25151;45.566;9.382;2023-04-15T05:58:57;0.85;;;0.40;;
39448;SDS011;25151;45.566;9.382;2023-04-15T06:01:58;1.23;;;0.60;;
39448;SDS011;25151;45.566;9.382;2023-04-15T06:05:00;1.58;;;0.50;;
39448;SDS011;25151;45.566;9.382;2023-04-15T06:08:05;1.35;;;0.70;;
39448;SDS011;25151;45.566;9.382;2023-04-15T06:11:06;1.35;;;0.70;;
39448;SDS011;25151;45.566;9.382;2023-04-15T06:14:07;1.35;;;0.70;;
39448;SDS011;25151;45.566;9.382;2023-04-15T06:17:09;2.05;;;0.65;;
39448;SDS011;25151;45.566;9.382;2023-04-15T06:20:14;1.02;;;0.70;;
39448;SDS011;25151;45.566;9.382;2023-04-15T06:23:17;2.17;;;1.15;;
39448;SDS011;25151;45.566;9.382;2023-04-15T06:26:18;1.15;;;0.60;;
39448;SDS011;25151;45.566;9.382;2023-04-15T06:29:19;1.02;;;0.50;;
39448;SDS011;25151;45.566;9.382;2023-04-15T06:32:20;1.15;;;0.60;;
39448;SDS011;25151;45.566;9.382;2023-04-15T06:35:21;1.42;;;0.70;;
39448;SDS011;25151;45.566;9.382;2023-04-15T06:38:24;5.18;;;0.60;;
39448;SDS011;25151;45.566;9.382;2023-04-15T06:41:26;1.27;;;0.70;;
39448;SDS011;25151;45.566;9.382;2023-04-15T06:44:28;0.90;;;0.60;;
39448;SDS011;25151;45.566;9.382;2023-04-15T06:47:29;0.98;;;0.68;;
39448;SDS011;25151;45.566;9.382;2023-04-15T06:50:30;1.10;;;0.52;;
39448;SDS011;25151;45.566;9.382;2023-04-15T06:53:32;8.88;;;0.68;;
39448;SDS011;25151;45.566;9.382;2023-04-15T06:56:34;3.30;;;1.00;;
39448;SDS011;25151;45.566;9.382;2023-04-15T06:59:36;1.95;;;0.70;;
39448;SDS011;25151;45.566;9.382;2023-04-15T07:02:37;1.85;;;0.68;;
39448;SDS011;25151;45.566;9.382;2023-04-15T07:05:38;4.00;;;0.70;;
39448;SDS011;25151;45.566;9.382;2023-04-15T07:08:38;1.67;;;0.98;;
39448;SDS011;25151;45.566;9.382;2023-04-15T07:11:39;7.63;;;0.90;;
39448;SDS011;25151;45.566;9.382;2023-04-15T07:14:41;1.25;;;0.85;;
39448;SDS011;25151;45.566;9.382;2023-04-15T07:17:42;1.98;;;0.60;;
39448;SDS011;25151;45.566;9.382;2023-04-15T07:20:43;2.15;;;0.88;;
39448;SDS011;25151;45.566;9.382;2023-04-15T07:23:44;3.47;;;0.70;;
39448;SDS011;25151;45.566;9.382;2023-04-15T07:26:45;1.98;;;0.70;;
39448;SDS011;25151;45.566;9.382;2023-04-15T07:29:46;3.13;;;0.95;;
39448;SDS011;25151;45.566;9.382;2023-04-15T07:32:48;3.83;;;0.60;;
39448;SDS011;25151;45.566;9.382;2023-04-15T07:35:49;2.53;;;0.60;;
39448;SDS011;25151;45.566;9.382;2023-04-15T07:38:50;1.25;;;0.60;;
39448;SDS011;25151;45.566;9.382;2023-04-15T07:41:51;2.17;;;0.70;;
39448;SDS011;25151;45.566;9.382;2023-04-15T07:44:52;0.70;;;0.40;;
39448;SDS011;25151;45.566;9.382;2023-04-15T07:47:53;2.42;;;1.02;;
39448;SDS011;25151;45.566;9.382;2023-04-15T07:50:56;3.55;;;0.75;;
39448;SDS011;25151;45.566;9.382;2023-04-15T07:53:57;3.40;;;1.02;;
39448;SDS011;25151;45.566;9.382;2023-04-15T07:56:58;2.35;;;0.73;;
39448;SDS011;25151;45.566;9.382;2023-04-15T08:00:00;1.98;;;0.63;;
39448;SDS011;25151;45.566;9.382;2023-04-15T08:03:05;1.80;;;0.70;;
39448;SDS011;25151;45.566;9.382;2023-04-15T08:06:06;3.55;;;0.70;;
39448;SDS011;25151;45.566;9.382;2023-04-15T08:09:08;2.42;;;0.70;;
39448;SDS011;25151;45.566;9.382;2023-04-15T08:12:09;1.10;;;0.65;;
39448;SDS011;25151;45.566;9.382;2023-04-15T08:15:12;3.28;;;0.70;;
39448;SDS011;25151;45.566;9.382;2023-04-15T08:18:14;1.33;;;0.75;;
39448;SDS011;25151;45.566;9.382;2023-04-15T08:21:16;2.95;;;0.60;;
39448;SDS011;25151;45.566;9.382;2023-04-15T08:24:19;3.90;;;0.60;;
39448;SDS011;25151;45.566;9.382;2023-04-15T08:27:20;4.68;;;0.90;;
39448;SDS011;25151;45.566;9.382;2023-04-15T08:30:21;4.15;;;0.82;;
39448;SDS011;25151;45.566;9.382;2023-04-15T08:33:22;1.90;;;0.70;;
39448;SDS011;25151;45.566;9.382;2023-04-15T08:36:23;2.53;;;0.70;;
39448;SDS011;25151;45.566;9.382;2023-04-15T08:39:23;1.63;;;0.80;;
39448;SDS011;25151;45.566;9.382;2023-04-15T08:42:47;2.90;;;0.85;;
39448;SDS011;25151;45.566;9.382;2023-04-15T08:45:49;0.95;;;0.43;;
39448;SDS011;25151;45.566;9.382;2023-04-15T08:48:51;2.90;;;1.00;;
39448;SDS011;25151;45.566;9.382;2023-04-15T08:51:59;4.43;;;0.77;;
39448;SDS011;25151;45.566;9.382;2023-04-15T08:55:01;2.30;;;0.90;;
39448;SDS011;25151;45.566;9.382;2023-04-15T08:58:04;2.15;;;0.80;;
39448;SDS011;25151;45.566;9.382;2023-04-15T09:01:05;2.65;;;0.70;;
39448;SDS011;25151;45.566;9.382;2023-04-15T09:04:07;3.28;;;0.85;;
39448;SDS011;25151;45.566;9.382;2023-04-15T09:07:08;2.58;;;0.70;;
39448;SDS011;25151;45.566;9.382;2023-04-15T09:10:09;1.20;;;0.60;;
39448;SDS011;25151;45.566;9.382;2023-04-15T09:13:10;6.63;;;1.15;;
39448;SDS011;25151;45.566;9.382;2023-04-15T09:16:15;2.50;;;0.80;;
39448;SDS011;25151;45.566;9.382;2023-04-15T09:19:19;2.75;;;1.35;;
39448;SDS011;25151;45.566;9.382;2023-04-15T09:22:22;4.60;;;0.90;;
39448;SDS011;25151;45.566;9.382;2023-04-15T09:25:27;5.03;;;0.98;;
39448;SDS011;25151;45.566;9.382;2023-04-15T09:28:29;2.63;;;0.80;;
39448;SDS011;25151;45.566;9.382;2023-04-15T09:31:31;2.83;;;0.80;;
39448;SDS011;25151;45.566;9.382;2023-04-15T09:34:36;4.15;;;0.82;;
39448;SDS011;25151;45.566;9.382;2023-04-15T09:37:37;1.98;;;0.77;;
39448;SDS011;25151;45.566;9.382;2023-04-15T09:40:41;3.00;;;0.50;;
39448;SDS011;25151;45.566;9.382;2023-04-15T09:43:42;1.95;;;0.73;;
39448;SDS011;25151;45.566;9.382;2023-04-15T09:46:43;6.97;;;0.90;;
39448;SDS011;25151;45.566;9.382;2023-04-15T09:49:55;1.60;;;0.82;;
39448;SDS011;25151;45.566;9.382;2023-04-15T09:52:56;2.03;;;0.63;;
39448;SDS011;25151;45.566;9.382;2023-04-15T09:55:59;1.63;;;0.80;;
39448;SDS011;25151;45.566;9.382;2023-04-15T09:59:01;3.70;;;1.33;;
39448;SDS011;25151;45.566;9.382;2023-04-15T10:02:03;2.13;;;1.17;;
39448;SDS011;25151;45.566;9.382;2023-04-15T10:05:06;5.13;;;0.93;;
39448;SDS011;25151;45.566;9.382;2023-04-15T10:08:10;1.60;;;1.02;;
39448;SDS011;25151;45.566;9.382;2023-04-15T10:11:11;3.85;;;1.00;;
39448;SDS011;25151;45.566;9.382;2023-04-15T10:14:13;2.83;;;0.70;;
39448;SDS011;25151;45.566;9.382;2023-04-15T10:17:15;6.55;;;1.52;;
39448;SDS011;25151;45.566;9.382;2023-04-15T10:20:17;3.72;;;1.30;;
39448;SDS011;25151;45.566;9.382;2023-04-15T10:23:19;1.70;;;0.90;;
39448;SDS011;25151;45.566;9.382;2023-04-15T10:26:22;5.65;;;1.50;;
39448;SDS011;25151;45.566;9.382;2023-04-15T10:29:24;2.95;;;1.20;;
39448;SDS011;25151;45.566;9.382;2023-04-15T10:32:27;10.32;;;1.40;;
39448;SDS011;25151;45.566;9.382;2023-04-15T10:35:30;5.13;;;1.65;;
39448;SDS011;25151;45.566;9.382;2023-04-15T10:38:43;3.28;;;1.30;;
39448;SDS011;25151;45.566;9.382;2023-04-15T10:41:45;4.15;;;1.13;;
39448;SDS011;25151;45.566;9.382;2023-04-15T10:45:14;4.20;;;1.40;;
39448;SDS011;25151;45.566;9.382;2023-04-15T10:48:17;2.53;;;1.60;;
39448;SDS011;25151;45.566;9.382;2023-04-15T10:51:27;4.03;;;1.30;;
39448;SDS011;25151;45.566;9.382;2023-04-15T10:54:30;3.85;;;1.63;;
39448;SDS011;25151;45.566;9.382;2023-04-15T10:57:39;2.55;;;1.45;;
39448;SDS011;25151;45.566;9.382;2023-04-15T11:00:40;6.40;;;1.42;;
39448;SDS011;25151;45.566;9.382;2023-04-15T11:03:51;2.78;;;0.90;;
39448;SDS011;25151;45.566;9.382;2023-04-15T11:07:04;2.50;;;1.20;;
39448;SDS011;25151;45.566;9.382;2023-04-15T11:13:25;5.00;;;1.30;;
39448;SDS011;25151;45.566;9.382;2023-04-15T11:16:28;3.25;;;1.02;;
39448;SDS011;25151;45.566;9.382;2023-04-15T11:19:36;5.60;;;1.67;;
39448;SDS011;25151;45.566;9.382;2023-04-15T11:22:47;3.83;;;1.20;;
39448;SDS011;25151;45.566;9.382;2023-04-15T11:25:48;3.60;;;1.23;;
39448;SDS011;25151;45.566;9.382;2023-04-15T11:28:49;3.60;;;0.95;;
39448;SDS011;25151;45.566;9.382;2023-04-15T11:31:50;2.58;;;1.27;;
39448;SDS011;25151;45.566;9.382;2023-04-15T11:34:51;3.65;;;1.00;;
39448;SDS011;25151;45.566;9.382;2023-04-15T11:37:52;5.82;;;1.63;;
39448;SDS011;25151;45.566;9.382;2023-04-15T11:40:53;5.03;;;1.05;;
39448;SDS011;25151;45.566;9.382;2023-04-15T11:43:54;4.75;;;1.25;;
39448;SDS011;25151;45.566;9.382;2023-04-15T11:46:55;3.85;;;1.10;;
39448;SDS011;25151;45.566;9.382;2023-04-15T11:49:56;3.63;;;1.27;;
39448;SDS011;25151;45.566;9.382;2023-04-15T11:53:00;1.88;;;1.00;;
39448;SDS011;25151;45.566;9.382;2023-04-15T11:56:03;1.83;;;1.10;;
39448;SDS011;25151;45.566;9.382;2023-04-15T11:59:05;5.95;;;1.20;;
39448;SDS011;25151;45.566;9.382;2023-04-15T12:02:12;2.72;;;1.60;;
39448;SDS011;25151;45.566;9.382;2023-04-15T12:05:13;4.13;;;1.10;;
39448;SDS011;25151;45.566;9.382;2023-04-15T12:08:15;3.85;;;1.30;;
39448;SDS011;25151;45.566;9.382;2023-04-15T12:11:16;1.73;;;1.02;;
39448;SDS011;25151;45.566;9.382;2023-04-15T12:14:22;2.05;;;0.80;;
39448;SDS011;25151;45.566;9.382;2023-04-15T12:17:28;2.97;;;0.80;;
39448;SDS011;25151;45.566;9.382;2023-04-15T12:20:30;2.03;;;0.80;;
39448;SDS011;25151;45.566;9.382;2023-04-15T12:23:30;2.42;;;1.00;;
39448;SDS011;25151;45.566;9.382;2023-04-15T12:29:44;6.63;;;1.65;;
39448;SDS011;25151;45.566;9.382;2023-04-15T12:32:45;4.28;;;1.33;;
39448;SDS011;25151;45.566;9.382;2023-04-15T12:35:46;5.68;;;1.13;;
39448;SDS011;25151;45.566;9.382;2023-04-15T12:38:48;5.60;;;1.20;;
39448;SDS011;25151;45.566;9.382;2023-04-15T12:41:49;2.83;;;0.98;;
39448;SDS011;25151;45.566;9.382;2023-04-15T12:44:49;3.65;;;1.00;;
39448;SDS011;25151;45.566;9.382;2023-04-15T12:47:50;2.75;;;1.20;;
39448;SDS011;25151;45.566;9.382;2023-04-15T12:50:51;1.42;;;0.95;;
39448;SDS011;25151;45.566;9.382;2023-04-15T12:53:52;1.83;;;1.00;;
39448;SDS011;25151;45.566;9.382;2023-04-15T12:56:55;4.40;;;1.20;;
39448;SDS011;25151;45.566;9.382;2023-04-15T12:59:58;4.25;;;0.77;;
39448;SDS011;25151;45.566;9.382;2023-04-15T13:02:59;4.20;;;1.20;;
39448;SDS011;25151;45.566;9.382;2023-04-15T13:06:00;4.78;;;1.27;;
39448;SDS011;25151;45.566;9.382;2023-04-15T13:09:04;3.90;;;1.00;;
39448;SDS011;25151;45.566;9.382;2023-04-15T13:12:06;3.00;;;1.33;;
39448;SDS011;25151;45.566;9.382;2023-04-15T13:15:07;2.03;;;0.80;;
39448;SDS011;25151;45.566;9.382;2023-04-15T13:18:11;3.78;;;1.15;;
39448;SDS011;25151;45.566;9.382;2023-04-15T13:21:12;5.45;;;1.17;;
39448;SDS011;25151;45.566;9.382;2023-04-15T13:24:13;3.53;;;1.00;;
39448;SDS011;25151;45.566;9.382;2023-04-15T13:27:14;5.93;;;0.95;;
39448;SDS011;25151;45.566;9.382;2023-04-15T13:30:16;1.73;;;0.80;;
39448;SDS011;25151;45.566;9.382;2023-04-15T13:33:18;5.32;;;1.08;;
39448;SDS011;25151;45.566;9.382;2023-04-15T13:36:19;4.85;;;1.13;;
39448;SDS011;25151;45.566;9.382;2023-04-15T13:39:21;6.18;;;1.00;;
39448;SDS011;25151;45.566;9.382;2023-04-15T13:42:22;4.07;;;0.90;;
39448;SDS011;25151;45.566;9.382;2023-04-15T13:45:23;2.28;;;1.13;;
39448;SDS011;25151;45.566;9.382;2023-04-15T13:48:24;5.93;;;0.85;;
39448;SDS011;25151;45.566;9.382;2023-04-15T13:51:26;3.92;;;1.20;;
39448;SDS011;25151;45.566;9.382;2023-04-15T13:54:28;3.90;;;1.08;;
39448;SDS011;25151;45.566;9.382;2023-04-15T13:57:30;4.03;;;1.23;;
39448;SDS011;25151;45.566;9.382;2023-04-15T14:00:31;3.35;;;0.90;;
39448;SDS011;25151;45.566;9.382;2023-04-15T14:03:33;3.60;;;1.17;;
39448;SDS011;25151;45.566;9.382;2023-04-15T14:06:35;2.50;;;1.25;;
39448;SDS011;25151;45.566;9.382;2023-04-15T14:09:36;8.23;;;1.00;;
39448;SDS011;25151;45.566;9.382;2023-04-15T14:12:38;2.65;;;1.27;;
39448;SDS011;25151;45.566;9.382;2023-04-15T14:15:42;4.38;;;1.20;;
39448;SDS011;25151;45.566;9.382;2023-04-15T14:18:43;3.08;;;0.80;;
39448;SDS011;25151;45.566;9.382;2023-04-15T14:21:45;1.92;;;0.90;;
39448;SDS011;25151;45.566;9.382;2023-04-15T14:24:46;2.63;;;1.00;;
39448;SDS011;25151;45.566;9.382;2023-04-15T14:27:48;3.55;;;1.25;;
39448;SDS011;25151;45.566;9.382;2023-04-15T14:30:50;4.07;;;1.00;;
39448;SDS011;25151;45.566;9.382;2023-04-15T14:33:52;4.10;;;1.00;;
39448;SDS011;25151;45.566;9.382;2023-04-15T14:36:53;3.17;;;0.80;;
39448;SDS011;25151;45.566;9.382;2023-04-15T14:39:55;2.70;;;1.08;;
39448;SDS011;25151;45.566;9.382;2023-04-15T14:42:58;3.20;;;1.10;;
39448;SDS011;25151;45.566;9.382;2023-04-15T14:46:00;3.90;;;1.05;;
39448;SDS011;25151;45.566;9.382;2023-04-15T14:49:02;2.97;;;1.00;;
39448;SDS011;25151;45.566;9.382;2023-04-15T14:52:03;1.90;;;1.13;;
39448;SDS011;25151;45.566;9.382;2023-04-15T14:55:08;4.35;;;1.05;;
39448;SDS011;25151;45.566;9.382;2023-04-15T14:58:11;2.50;;;0.63;;
39448;SDS011;25151;45.566;9.382;2023-04-15T15:01:12;3.38;;;0.77;;
39448;SDS011;25151;45.566;9.382;2023-04-15T15:04:17;2.95;;;0.80;;
39448;SDS011;25151;45.566;9.382;2023-04-15T15:07:22;3.13;;;1.10;;
39448;SDS011;25151;45.566;9.382;2023-04-15T15:10:25;2.42;;;0.80;;
39448;SDS011;25151;45.566;9.382;2023-04-15T15:13:32;2.08;;;0.80;;
39448;SDS011;25151;45.566;9.382;2023-04-15T15:16:36;2.85;;;0.73;;
39448;SDS011;25151;45.566;9.382;2023-04-15T15:19:40;1.35;;;0.73;;
39448;SDS011;25151;45.566;9.382;2023-04-15T15:22:42;5.15;;;0.90;;
39448;SDS011;25151;45.566;9.382;2023-04-15T15:25:49;2.45;;;0.80;;
39448;SDS011;25151;45.566;9.382;2023-04-15T15:28:52;3.35;;;1.10;;
39448;SDS011;25151;45.566;9.382;2023-04-15T15:31:53;1.98;;;0.90;;
39448;SDS011;25151;45.566;9.382;2023-04-15T15:34:54;3.13;;;0.93;;
39448;SDS011;25151;45.566;9.382;2023-04-15T15:37:58;2.13;;;0.77;;
39448;SDS011;25151;45.566;9.382;2023-04-15T15:41:01;2.13;;;0.75;;
39448;SDS011;25151;45.566;9.382;2023-04-15T15:44:04;2.10;;;0.70;;
39448;SDS011;25151;45.566;9.382;2023-04-15T15:47:08;2.60;;;0.93;;
39448;SDS011;25151;45.566;9.382;2023-04-15T15:50:13;0.75;;;0.60;;
39448;SDS011;25151;45.566;9.382;2023-04-15T15:53:16;2.25;;;1.02;;
39448;SDS011;25151;45.566;9.382;2023-04-15T15:56:20;2.47;;;1.23;;
39448;SDS011;25151;45.566;9.382;2023-04-15T15:59:24;2.47;;;0.80;;
39448;SDS011;25151;45.566;9.382;2023-04-15T16:02:28;2.20;;;0.80;;
39448;SDS011;25151;45.566;9.382;2023-04-15T16:05:38;4.10;;;0.90;;
39448;SDS011;25151;45.566;9.382;2023-04-15T16:08:41;1.40;;;0.70;;
39448;SDS011;25151;45.566;9.382;2023-04-15T16:11:45;2.78;;;0.90;;
39448;SDS011;25151;45.566;9.382;2023-04-15T16:14:51;1.95;;;0.80;;
39448;SDS011;25151;45.566;9.382;2023-04-15T16:17:56;5.80;;;0.90;;
39448;SDS011;25151;45.566;9.382;2023-04-15T16:20:59;2.22;;;1.17;;
39448;SDS011;25151;45.566;9.382;2023-04-15T16:24:06;1.40;;;0.70;;
39448;SDS011;25151;45.566;9.382;2023-04-15T16:27:09;1.52;;;0.90;;
39448;SDS011;25151;45.566;9.382;2023-04-15T16:30:15;5.30;;;0.90;;
39448;SDS011;25151;45.566;9.382;2023-04-15T16:33:18;1.73;;;0.50;;
39448;SDS011;25151;45.566;9.382;2023-04-15T16:36:21;1.73;;;0.82;;
39448;SDS011;25151;45.566;9.382;2023-04-15T16:39:24;1.50;;;0.65;;
39448;SDS011;25151;45.566;9.382;2023-04-15T16:42:26;3.50;;;0.90;;
39448;SDS011;25151;45.566;9.382;2023-04-15T16:45:28;1.80;;;0.85;;
39448;SDS011;25151;45.566;9.382;2023-04-15T16:48:29;2.40;;;0.90;;
39448;SDS011;25151;45.566;9.382;2023-04-15T16:51:30;3.40;;;1.00;;
39448;SDS011;25151;45.566;9.382;2023-04-15T16:54:31;1.80;;;0.88;;
39448;SDS011;25151;45.566;9.382;2023-04-15T16:57:34;1.73;;;0.77;;
39448;SDS011;25151;45.566;9.382;2023-04-15T17:00:35;1.13;;;0.70;;
39448;SDS011;25151;45.566;9.382;2023-04-15T17:03:36;2.90;;;0.75;;
39448;SDS011;25151;45.566;9.382;2023-04-15T17:06:38;2.45;;;0.68;;
39448;SDS011;25151;45.566;9.382;2023-04-15T17:09:39;1.52;;;0.60;;
39448;SDS011;25151;45.566;9.382;2023-04-15T17:12:40;2.15;;;0.93;;
39448;SDS011;25151;45.566;9.382;2023-04-15T17:15:41;2.53;;;0.75;;
39448;SDS011;25151;45.566;9.382;2023-04-15T17:18:42;1.77;;;1.00;;
39448;SDS011;25151;45.566;9.382;2023-04-15T17:21:44;3.22;;;0.80;;
39448;SDS011;25151;45.566;9.382;2023-04-15T17:24:45;0.88;;;0.60;;
39448;SDS011;25151;45.566;9.382;2023-04-15T17:27:46;3.03;;;0.88;;
39448;SDS011;25151;45.566;9.382;2023-04-15T17:30:47;1.13;;;0.75;;
39448;SDS011;25151;45.566;9.382;2023-04-15T17:33:47;3.17;;;0.80;;
39448;SDS011;25151;45.566;9.382;2023-04-15T17:36:48;2.15;;;0.80;;
39448;SDS011;25151;45.566;9.382;2023-04-15T17:39:51;1.73;;;0.95;;
39448;SDS011;25151;45.566;9.382;2023-04-15T17:42:53;3.60;;;0.85;;
39448;SDS011;25151;45.566;9.382;2023-04-15T17:45:55;2.97;;;0.90;;
39448;SDS011;25151;45.566;9.382;2023-04-15T17:48:56;2.72;;;0.98;;
39448;SDS011;25151;45.566;9.382;2023-04-15T17:51:57;2.85;;;1.30;;
39448;SDS011;25151;45.566;9.382;2023-04-15T17:54:58;4.97;;;1.02;;
39448;SDS011;25151;45.566;9.382;2023-04-15T17:58:00;2.30;;;0.70;;
39448;SDS011;25151;45.566;9.382;2023-04-15T18:01:02;1.90;;;0.90;;
39448;SDS011;25151;45.566;9.382;2023-04-15T18:04:07;2.92;;;1.00;;
39448;SDS011;25151;45.566;9.382;2023-04-15T18:07:09;1.02;;;0.60;;
39448;SDS011;25151;45.566;9.382;2023-04-15T18:10:13;2.63;;;0.95;;
39448;SDS011;25151;45.566;9.382;2023-04-15T18:13:17;2.42;;;1.00;;
39448;SDS011;25151;45.566;9.382;2023-04-15T18:16:26;1.75;;;0.80;;
39448;SDS011;25151;45.566;9.382;2023-04-15T18:19:31;2.92;;;1.00;;
39448;SDS011;25151;45.566;9.382;2023-04-15T18:22:36;3.38;;;0.80;;
39448;SDS011;25151;45.566;9.382;2023-04-15T18:25:39;3.47;;;0.90;;